Time;durP1;ratioP1;P1;durP2;ratioP2;P2;SDS_P1;SDS_P2;PMS_P1;PMS_P2;Temp;Humidity;BMP_temperature;BMP_pressure;BME280_temperature;BME280_humidity;BME280_pressure;Samples;Min_cycle;Max_cycle;Signal;HPM_P1;HPM_P2
2022/01/05 00:00:49;;;;;;;19.60;1.85;;;1.10;99.90;;;;;;4963447;28;20054;-93
2022/01/05 00:03:15;;;;;;;8.43;1.30;;;1.00;99.90;;;;;;4963245;28;20058;-93
2022/01/05 00:05:41;;;;;;;10.18;1.20;;;1.10;99.90;;;;;;4962837;28;20069;-92
2022/01/05 00:08:07;;;;;;;10.40;1.50;;;1.10;99.90;;;;;;4962223;28;20093;-93
2022/01/05 00:10:33;;;;;;;9.07;1.23;;;1.20;99.90;;;;;;4962593;28;20089;-93
2022/01/05 00:12:58;;;;;;;11.52;1.50;;;1.40;99.90;;;;;;4978908;28;20046;-93
2022/01/05 00:15:24;;;;;;;8.23;1.00;;;1.50;99.90;;;;;;4962867;28;20504;-95
2022/01/05 00:17:50;;;;;;;10.15;1.70;;;1.70;99.90;;;;;;4963215;28;20407;-95
2022/01/05 00:20:16;;;;;;;8.90;1.08;;;1.90;99.90;;;;;;4962561;28;20046;-92
2022/01/05 00:22:41;;;;;;;8.05;1.10;;;2.00;99.90;;;;;;4962143;28;20053;-93
2022/01/05 00:25:07;;;;;;;9.68;1.58;;;2.10;99.90;;;;;;4962072;28;20068;-92
2022/01/05 00:27:33;;;;;;;10.88;1.52;;;2.10;99.90;;;;;;4962052;28;20073;-92
2022/01/05 00:29:58;;;;;;;13.82;1.88;;;2.00;99.90;;;;;;4977934;28;20399;-92
2022/01/05 00:32:24;;;;;;;14.15;2.03;;;2.00;99.90;;;;;;4977751;28;20054;-91
2022/01/05 00:34:52;;;;;;;17.17;1.60;;;1.80;99.90;;;;;;4978075;28;20050;-92
2022/01/05 00:37:33;;;;;;;13.80;1.58;;;1.70;99.90;;;;;;4977943;28;20097;-93
2022/01/05 00:39:58;;;;;;;10.70;1.17;;;1.60;99.90;;;;;;4958719;28;20117;-94
2022/01/05 00:42:24;;;;;;;5.43;0.95;;;1.50;99.90;;;;;;4942795;28;20047;-93
2022/01/05 00:44:50;;;;;;;9.75;1.20;;;1.50;99.90;;;;;;4942477;28;20208;-92
2022/01/05 00:47:16;;;;;;;9.27;1.30;;;1.40;99.90;;;;;;4942670;28;20051;-94
2022/01/05 00:49:42;;;;;;;15.02;2.28;;;1.30;99.90;;;;;;4958222;28;20412;-93
2022/01/05 00:52:08;;;;;;;9.95;1.55;;;1.30;99.90;;;;;;4958337;28;20084;-94
2022/01/05 00:54:33;;;;;;;11.95;1.45;;;1.20;99.90;;;;;;4942309;28;20047;-94
2022/01/05 00:57:00;;;;;;;9.73;1.80;;;1.20;99.90;;;;;;4958353;28;20055;-93
2022/01/05 00:59:25;;;;;;;9.18;1.25;;;1.10;99.90;;;;;;4942558;28;20390;-95
2022/01/05 01:01:51;;;;;;;4.40;0.65;;;1.20;99.90;;;;;;4958280;28;20135;-94
2022/01/05 01:04:17;;;;;;;11.55;1.70;;;1.20;99.90;;;;;;4958589;28;20069;-93
2022/01/05 01:06:42;;;;;;;10.75;1.50;;;1.20;99.90;;;;;;4958592;28;20054;-93
2022/01/05 01:09:08;;;;;;;8.93;1.20;;;1.20;99.90;;;;;;4941926;28;20051;-95
2022/01/05 01:11:34;;;;;;;6.30;1.00;;;1.10;99.90;;;;;;4958066;28;20074;-93
2022/01/05 01:14:00;;;;;;;9.48;1.05;;;1.10;99.90;;;;;;4958011;28;20420;-93
2022/01/05 01:16:26;;;;;;;8.70;1.35;;;1.10;99.90;;;;;;4958255;28;20134;-93
2022/01/05 01:18:52;;;;;;;9.15;1.20;;;1.00;99.90;;;;;;4942134;28;20082;-93
2022/01/05 01:21:17;;;;;;;14.07;1.50;;;1.00;99.90;;;;;;4957922;28;20051;-93
2022/01/05 01:23:54;;;;;;;11.38;1.08;;;1.00;99.90;;;;;;4941970;28;20089;-93
2022/01/05 01:26:19;;;;;;;14.25;1.52;;;1.40;99.90;;;;;;4941943;28;20073;-93
2022/01/05 01:28:45;;;;;;;13.80;1.92;;;1.00;99.90;;;;;;4941617;28;20075;-93
2022/01/05 01:31:11;;;;;;;7.65;1.30;;;1.00;99.90;;;;;;4941995;28;20058;-93
2022/01/05 01:33:36;;;;;;;18.13;1.98;;;1.10;99.90;;;;;;4942026;28;20050;-93
2022/01/05 01:36:02;;;;;;;9.57;1.30;;;1.10;99.90;;;;;;4957866;28;20046;-94
2022/01/05 01:38:28;;;;;;;12.10;1.55;;;1.20;99.90;;;;;;4948946;28;20149;-94
2022/01/05 01:40:54;;;;;;;11.73;1.50;;;1.20;99.90;;;;;;4961610;28;20452;-94
2022/01/05 01:43:19;;;;;;;10.40;1.60;;;1.20;99.90;;;;;;4977573;28;20508;-94
2022/01/05 01:45:45;;;;;;;8.27;1.65;;;1.30;99.90;;;;;;4961389;28;20082;-95
2022/01/05 01:48:11;;;;;;;16.17;1.23;;;1.30;99.90;;;;;;4977100;28;20051;-94
2022/01/05 01:50:37;;;;;;;15.70;1.60;;;1.30;99.90;;;;;;4977354;28;20046;-93
2022/01/05 01:53:03;;;;;;;13.77;1.60;;;1.30;99.90;;;;;;4960461;28;20109;-94
2022/01/05 01:55:28;;;;;;;16.70;1.33;;;1.30;99.90;;;;;;4961120;28;20065;-93
2022/01/05 01:57:55;;;;;;;11.57;1.45;;;1.20;99.90;;;;;;4961283;28;20578;-93
2022/01/05 02:00:21;;;;;;;13.85;1.75;;;1.20;99.90;;;;;;4977026;28;20070;-93
2022/01/05 02:02:47;;;;;;;14.90;1.60;;;1.20;99.90;;;;;;4960966;28;20058;-93
2022/01/05 02:05:13;;;;;;;13.65;1.33;;;1.20;99.90;;;;;;4976835;28;20058;-94
2022/01/05 02:07:39;;;;;;;11.68;1.58;;;1.20;99.90;;;;;;4959986;28;20055;-94
2022/01/05 02:10:07;;;;;;;16.63;2.53;;;1.20;99.90;;;;;;4962515;28;20145;-93
2022/01/05 02:12:33;;;;;;;9.63;1.50;;;1.10;99.90;;;;;;4980499;28;20046;-92
2022/01/05 02:14:59;;;;;;;12.68;2.30;;;1.10;99.90;;;;;;4980718;28;20128;-93
2022/01/05 02:17:29;;;;;;;15.90;1.70;;;1.20;99.90;;;;;;4964657;28;20454;-95
2022/01/05 02:19:55;;;;;;;12.15;1.52;;;1.20;99.90;;;;;;4964673;28;20069;-92
2022/01/05 02:22:21;;;;;;;12.40;1.77;;;1.20;99.90;;;;;;4980263;28;20051;-93
2022/01/05 02:24:47;;;;;;;14.63;1.92;;;1.10;99.90;;;;;;4980414;28;20046;-95
2022/01/05 02:27:14;;;;;;;15.70;1.42;;;1.10;99.90;;;;;;4980868;28;20515;-95
2022/01/05 02:29:40;;;;;;;14.52;2.10;;;1.10;99.90;;;;;;4964400;28;20137;-94
2022/01/05 02:32:06;;;;;;;8.23;1.50;;;1.10;99.90;;;;;;4964484;28;20522;-93
2022/01/05 02:34:32;;;;;;;12.90;1.85;;;1.10;99.90;;;;;;4963786;28;20073;-95
2022/01/05 02:36:58;;;;;;;13.98;2.10;;;1.10;99.90;;;;;;4980194;28;20046;-92
2022/01/05 02:39:23;;;;;;;16.33;2.03;;;1.10;99.90;;;;;;4964459;28;20051;-95
2022/01/05 02:41:50;;;;;;;13.20;2.08;;;1.10;99.90;;;;;;4977110;28;20423;-92
2022/01/05 02:44:16;;;;;;;13.25;1.60;;;1.10;99.90;;;;;;4960769;28;20063;-94
2022/01/05 02:46:41;;;;;;;14.70;1.70;;;1.10;99.90;;;;;;4977025;28;20059;-93
2022/01/05 02:49:07;;;;;;;15.48;1.98;;;1.10;99.90;;;;;;4944888;28;20062;-94
2022/01/05 02:51:32;;;;;;;13.95;1.60;;;1.10;99.90;;;;;;4976833;28;20051;-94
2022/01/05 02:53:58;;;;;;;11.27;1.80;;;1.10;99.90;;;;;;4944152;28;20050;-94
2022/01/05 02:56:24;;;;;;;8.77;1.30;;;1.10;99.90;;;;;;4945107;28;20059;-93
2022/01/05 02:58:49;;;;;;;14.15;1.85;;;1.10;99.90;;;;;;4944789;28;20067;-94
2022/01/05 03:01:15;;;;;;;13.02;1.60;;;1.20;99.90;;;;;;4944721;28;20193;-94
2022/01/05 03:03:41;;;;;;;13.80;1.77;;;1.30;99.90;;;;;;4976681;28;20054;-94
2022/01/05 03:06:06;;;;;;;18.13;2.40;;;1.20;99.90;;;;;;4960344;28;20063;-94
2022/01/05 03:08:32;;;;;;;13.77;1.83;;;1.30;99.90;;;;;;4944119;28;20059;-94
2022/01/05 03:10:59;;;;;;;11.50;1.77;;;1.30;99.90;;;;;;4944026;28;20409;-95
2022/01/05 03:13:25;;;;;;;18.05;2.35;;;1.20;99.90;;;;;;4960124;28;20055;-94
2022/01/05 03:15:52;;;;;;;19.40;1.90;;;1.30;99.90;;;;;;4960286;28;20566;-94
2022/01/05 03:18:18;;;;;;;12.65;1.60;;;1.90;99.90;;;;;;4960309;28;20058;-93
2022/01/05 03:20:46;;;;;;;14.95;1.83;;;1.40;99.90;;;;;;4943873;28;20077;-94
2022/01/05 03:23:12;;;;;;;14.60;1.92;;;1.50;99.90;;;;;;4959946;28;20066;-94
2022/01/05 03:25:39;;;;;;;13.63;1.80;;;1.50;99.90;;;;;;4960257;28;20050;-95
2022/01/05 03:28:06;;;;;;;15.68;2.00;;;1.60;99.90;;;;;;4944359;28;20399;-93
2022/01/05 03:30:33;;;;;;;14.10;2.03;;;1.60;99.90;;;;;;4960065;28;20097;-93
2022/01/05 03:35:29;;;;;;;17.98;2.22;;;1.90;99.90;;;;;;4959445;28;20055;-93
2022/01/05 03:37:55;;;;;;;17.30;2.00;;;1.60;99.90;;;;;;4947093;28;20062;-95
2022/01/05 03:40:22;;;;;;;15.95;2.22;;;1.60;99.90;;;;;;4962782;28;20065;-95
2022/01/05 03:42:48;;;;;;;13.35;1.58;;;1.60;99.90;;;;;;4963200;28;20144;-94
2022/01/05 03:45:14;;;;;;;13.25;1.95;;;1.50;99.90;;;;;;4962809;28;20058;-93
2022/01/05 03:47:40;;;;;;;17.48;2.03;;;1.50;99.90;;;;;;4962598;28;20066;-94
2022/01/05 03:50:06;;;;;;;20.25;2.20;;;1.60;99.90;;;;;;4962827;28;20085;-93
2022/01/05 03:52:32;;;;;;;19.00;2.15;;;1.60;99.90;;;;;;4978548;28;20109;-93
2022/01/05 03:54:58;;;;;;;22.90;3.30;;;1.50;99.90;;;;;;4962279;28;20061;-94
2022/01/05 03:57:25;;;;;;;19.38;2.00;;;1.50;99.90;;;;;;4978940;28;20062;-93
2022/01/05 03:59:52;;;;;;;15.73;1.70;;;1.50;99.90;;;;;;4978719;28;20089;-95
2022/01/05 04:02:17;;;;;;;18.40;2.97;;;1.50;99.90;;;;;;4978769;28;20058;-93
2022/01/05 04:04:43;;;;;;;12.85;2.03;;;1.70;99.90;;;;;;4962354;28;20058;-95
2022/01/05 04:07:09;;;;;;;12.75;2.05;;;1.50;99.90;;;;;;4978393;28;20061;-94
2022/01/05 04:09:35;;;;;;;13.32;1.63;;;1.50;99.90;;;;;;4962149;28;20524;-93
2022/01/05 04:12:01;;;;;;;16.88;3.15;;;1.60;99.90;;;;;;4978744;28;20082;-93
2022/01/05 04:14:26;;;;;;;17.08;2.10;;;1.60;99.90;;;;;;4962125;28;20415;-94
2022/01/05 04:16:52;;;;;;;19.25;1.83;;;1.60;99.90;;;;;;4962898;28;20063;-94
2022/01/05 04:19:17;;;;;;;21.05;2.75;;;1.50;99.90;;;;;;4978273;28;20051;-94
2022/01/05 04:21:43;;;;;;;24.75;2.55;;;1.50;99.90;;;;;;4978649;28;20089;-94
2022/01/05 04:24:09;;;;;;;27.80;3.15;;;1.50;99.90;;;;;;4961997;28;20061;-93
2022/01/05 04:26:34;;;;;;;16.58;2.33;;;1.70;99.90;;;;;;4961898;28;20066;-94
2022/01/05 04:29:00;;;;;;;14.60;2.03;;;1.60;99.90;;;;;;4962203;28;20054;-94
2022/01/05 04:31:26;;;;;;;17.15;2.05;;;1.80;99.90;;;;;;4977997;28;20046;-93
2022/01/05 04:33:51;;;;;;;16.58;2.17;;;2.10;99.90;;;;;;4961211;28;20046;-94
2022/01/05 04:36:17;;;;;;;16.45;2.00;;;1.90;99.90;;;;;;4978164;28;20136;-93
2022/01/05 04:38:43;;;;;;;12.02;2.03;;;2.20;99.90;;;;;;4951830;28;20456;-92
2022/01/05 04:41:08;;;;;;;24.63;2.33;;;2.00;99.90;;;;;;4974751;28;20058;-92
2022/01/05 04:43:34;;;;;;;25.13;2.58;;;2.00;99.90;;;;;;4942880;28;20062;-93
2022/01/05 04:46:00;;;;;;;14.95;1.88;;;2.10;99.90;;;;;;4975230;28;20062;-93
2022/01/05 04:48:26;;;;;;;20.63;2.10;;;2.10;99.90;;;;;;4974891;28;20051;-93
2022/01/05 04:50:52;;;;;;;12.32;1.95;;;2.50;99.90;;;;;;4958479;28;20145;-94
2022/01/05 04:53:18;;;;;;;17.58;2.22;;;2.40;99.90;;;;;;4958098;28;20639;-94
2022/01/05 04:55:44;;;;;;;16.27;2.83;;;2.40;99.90;;;;;;4942058;28;20416;-94
2022/01/05 04:58:09;;;;;;;21.92;2.78;;;2.30;99.90;;;;;;4958290;28;20062;-94
2022/01/05 05:00:35;;;;;;;23.27;3.08;;;2.30;99.90;;;;;;4942558;28;20047;-93
2022/01/05 05:03:01;;;;;;;19.67;2.58;;;2.20;99.90;;;;;;4958420;28;20050;-93
2022/01/05 05:05:27;;;;;;;16.67;2.80;;;2.20;99.90;;;;;;4942326;28;20054;-93
2022/01/05 05:07:52;;;;;;;20.63;2.83;;;2.30;99.90;;;;;;4942451;28;20152;-93
2022/01/05 05:10:18;;;;;;;15.70;2.72;;;2.20;99.90;;;;;;4942213;28;20167;-93
2022/01/05 05:12:44;;;;;;;16.92;2.33;;;2.30;99.90;;;;;;4974514;28;20058;-93
2022/01/05 05:15:10;;;;;;;16.05;2.00;;;2.30;99.90;;;;;;4942419;28;20062;-93
2022/01/05 05:17:35;;;;;;;12.05;2.03;;;2.40;99.90;;;;;;4958291;28;20058;-93
2022/01/05 05:20:01;;;;;;;17.42;2.10;;;2.50;99.90;;;;;;4958387;28;20051;-94
2022/01/05 05:22:27;;;;;;;16.77;2.08;;;2.50;99.90;;;;;;4942150;28;20137;-93
2022/01/05 05:24:53;;;;;;;18.30;2.20;;;2.70;99.90;;;;;;4958013;28;20086;-93
2022/01/05 05:27:19;;;;;;;15.68;1.98;;;2.80;99.90;;;;;;4941785;28;20089;-93
2022/01/05 05:29:45;;;;;;;21.20;1.98;;;3.00;99.90;;;;;;4942097;28;20058;-94
2022/01/05 05:32:10;;;;;;;16.77;1.90;;;3.10;99.90;;;;;;4942046;28;20069;-94
2022/01/05 05:34:36;;;;;;;18.73;2.60;;;3.20;99.90;;;;;;4941842;28;20051;-95
2022/01/05 05:37:02;;;;;;;18.55;3.33;;;3.30;99.90;;;;;;4941735;28;20054;-95
2022/01/05 05:39:27;;;;;;;14.50;1.63;;;3.60;99.90;;;;;;4957515;28;20050;-95
2022/01/05 05:41:53;;;;;;;15.38;1.92;;;3.80;99.90;;;;;;4977510;28;20061;-93
2022/01/05 05:44:19;;;;;;;10.48;1.80;;;3.60;99.90;;;;;;4979129;28;20575;-95
2022/01/05 05:46:44;;;;;;;11.32;1.70;;;3.60;99.90;;;;;;4981602;28;20082;-94
2022/01/05 05:49:10;;;;;;;15.88;2.08;;;3.60;99.90;;;;;;4965121;28;20070;-94
2022/01/05 05:51:36;;;;;;;14.23;2.35;;;3.70;99.90;;;;;;4965328;28;20137;-93
2022/01/05 05:54:02;;;;;;;17.10;1.90;;;4.10;99.90;;;;;;4964798;28;20061;-94
2022/01/05 05:56:27;;;;;;;22.38;2.00;;;3.80;99.90;;;;;;4965593;28;20050;-94
2022/01/05 05:58:53;;;;;;;18.02;1.90;;;3.80;99.90;;;;;;4964935;28;20077;-96
2022/01/05 06:01:19;;;;;;;10.48;1.08;;;4.00;99.90;;;;;;4965834;28;20062;-94
2022/01/05 06:03:45;;;;;;;12.02;2.22;;;3.90;99.90;;;;;;4981303;28;20056;-94
2022/01/05 06:06:10;;;;;;;16.63;1.85;;;4.10;99.90;;;;;;4965195;28;20511;-95
2022/01/05 06:08:36;;;;;;;14.80;1.90;;;4.00;99.90;;;;;;4965457;28;20440;-95
2022/01/05 06:11:02;;;;;;;15.95;1.92;;;4.10;99.90;;;;;;4965889;28;20120;-94
2022/01/05 06:13:27;;;;;;;16.42;1.55;;;4.10;99.90;;;;;;4973375;28;20112;-93
2022/01/05 06:15:53;;;;;;;10.38;1.67;;;4.00;99.90;;;;;;4958534;28;20055;-90
2022/01/05 06:18:19;;;;;;;16.88;2.03;;;4.00;99.90;;;;;;4961236;28;20301;-93
2022/01/05 06:20:44;;;;;;;17.98;2.00;;;4.00;99.90;;;;;;4961019;28;20050;-91
2022/01/05 06:23:10;;;;;;;13.93;1.92;;;3.90;99.90;;;;;;4960342;28;20523;-91
2022/01/05 06:25:36;;;;;;;12.60;1.90;;;3.90;99.90;;;;;;4961070;28;20098;-91
2022/01/05 06:28:01;;;;;;;21.75;2.85;;;3.70;99.90;;;;;;4960548;28;20062;-95
2022/01/05 06:30:27;;;;;;;16.08;2.08;;;3.70;99.90;;;;;;4960701;28;20445;-91
2022/01/05 06:32:53;;;;;;;18.48;1.98;;;3.80;99.90;;;;;;4945093;28;20166;-91
2022/01/05 06:35:23;;;;;;;14.38;1.95;;;3.70;99.90;;;;;;4944766;28;20095;-93
2022/01/05 06:37:51;;;;;;;19.95;2.25;;;3.90;99.90;;;;;;4960988;28;20113;-94
2022/01/05 06:40:16;;;;;;;14.60;2.17;;;3.70;99.90;;;;;;4961808;28;20051;-94
2022/01/05 06:42:42;;;;;;;16.23;2.40;;;3.70;99.90;;;;;;4944537;28;20142;-93
2022/01/05 06:45:08;;;;;;;16.40;2.13;;;3.90;99.90;;;;;;4944937;28;20043;-94
2022/01/05 06:47:34;;;;;;;15.55;2.47;;;3.70;99.90;;;;;;4945344;28;20423;-91
2022/01/05 06:49:59;;;;;;;14.85;2.05;;;3.70;99.90;;;;;;4945056;28;20047;-94
2022/01/05 06:52:25;;;;;;;11.38;1.83;;;3.90;99.90;;;;;;4945056;28;20102;-93
2022/01/05 06:54:51;;;;;;;18.95;2.10;;;3.80;99.90;;;;;;4943773;28;20047;-93
2022/01/05 06:57:17;;;;;;;11.82;1.88;;;3.70;99.90;;;;;;4944527;28;20054;-91
2022/01/05 06:59:43;;;;;;;16.58;1.80;;;3.60;99.90;;;;;;4944312;28;20055;-90
2022/01/05 07:02:08;;;;;;;14.43;1.65;;;3.60;99.90;;;;;;4945057;28;20082;-95
2022/01/05 07:04:34;;;;;;;18.40;1.92;;;3.70;99.90;;;;;;4944433;28;20098;-91
2022/01/05 07:07:00;;;;;;;18.77;1.95;;;3.50;99.90;;;;;;4944209;28;20050;-90
2022/01/05 07:09:26;;;;;;;16.63;0.98;;;3.70;99.90;;;;;;4961349;28;20134;-94
2022/01/05 07:11:51;;;;;;;9.68;0.77;;;3.30;99.90;;;;;;4945606;28;20444;-91
2022/01/05 07:14:17;;;;;;;9.05;1.30;;;3.50;99.90;;;;;;4945019;28;20043;-93
2022/01/05 07:16:43;;;;;;;14.27;1.80;;;3.30;99.90;;;;;;4966056;28;20047;-96
2022/01/05 07:19:09;;;;;;;14.25;1.50;;;3.20;99.90;;;;;;4947171;28;20395;-93
2022/01/05 07:21:35;;;;;;;12.23;2.15;;;3.10;99.90;;;;;;4961292;28;20049;-93
2022/01/05 07:24:01;;;;;;;21.38;1.58;;;3.20;99.90;;;;;;4961918;28;20261;-93
2022/01/05 07:26:27;;;;;;;14.93;1.73;;;3.50;99.90;;;;;;4945877;28;20051;-92
2022/01/05 07:28:54;;;;;;;21.33;1.77;;;3.20;99.90;;;;;;4946550;28;20053;-95
2022/01/05 07:31:20;;;;;;;20.50;2.00;;;3.50;99.90;;;;;;4945754;28;20193;-95
2022/01/05 07:33:45;;;;;;;21.38;2.10;;;3.30;99.90;;;;;;4948705;28;20078;-93
2022/01/05 07:36:12;;;;;;;18.92;1.95;;;3.30;99.90;;;;;;4950401;28;20050;-95
2022/01/05 07:38:38;;;;;;;23.35;2.65;;;3.60;99.90;;;;;;4951887;28;20066;-94
2022/01/05 07:41:04;;;;;;;16.15;1.65;;;3.40;99.90;;;;;;4950559;28;20392;-93
2022/01/05 07:43:30;;;;;;;17.08;1.85;;;3.50;99.90;;;;;;4979767;28;20084;-95
2022/01/05 07:45:55;;;;;;;22.35;2.25;;;3.60;99.90;;;;;;4954478;28;20051;-93
2022/01/05 07:48:21;;;;;;;24.70;2.38;;;3.60;99.90;;;;;;4967539;28;20130;-92
2022/01/05 07:50:47;;;;;;;24.55;2.35;;;3.70;99.90;;;;;;4944795;28;20097;-92
2022/01/05 07:53:13;;;;;;;21.95;2.75;;;3.70;99.90;;;;;;4960507;28;20043;-90
2022/01/05 07:55:38;;;;;;;18.00;2.35;;;3.80;99.90;;;;;;4945868;28;20492;-94
2022/01/05 07:58:04;;;;;;;17.95;2.28;;;3.90;99.90;;;;;;4961991;28;20093;-88
2022/01/05 08:00:30;;;;;;;24.33;2.33;;;4.00;99.90;;;;;;4943587;28;20185;-92
2022/01/05 08:02:55;;;;;;;19.83;2.13;;;4.10;99.90;;;;;;4944213;28;20081;-94
2022/01/05 08:05:22;;;;;;;23.25;2.30;;;4.10;99.90;;;;;;4959191;28;20468;-91
2022/01/05 08:07:48;;;;;;;19.48;2.08;;;4.20;99.90;;;;;;4958572;28;20508;-94
2022/01/05 08:10:14;;;;;;;22.27;2.80;;;4.30;99.90;;;;;;4945949;28;20070;-94
2022/01/05 08:12:41;;;;;;;18.65;2.00;;;4.30;99.90;;;;;;4952977;28;20038;-93
2022/01/05 08:15:11;;;;;;;17.42;1.75;;;4.40;99.90;;;;;;4970023;28;20043;-94
2022/01/05 08:17:38;;;;;;;16.42;1.67;;;4.50;99.90;;;;;;4968606;28;20484;-93
2022/01/05 08:20:06;;;;;;;19.70;1.98;;;4.40;99.90;;;;;;4970691;28;20050;-93
2022/01/05 08:22:32;;;;;;;17.00;1.70;;;4.50;99.90;;;;;;4975958;28;20042;-92
2022/01/05 08:24:58;;;;;;;20.05;1.83;;;4.70;99.90;;;;;;4970948;28;20038;-92
2022/01/05 08:27:24;;;;;;;18.27;1.80;;;4.50;99.90;;;;;;4952218;28;20057;-94
2022/01/05 08:29:49;;;;;;;20.23;2.10;;;4.40;99.90;;;;;;4953468;28;20137;-91
2022/01/05 08:32:15;;;;;;;20.48;2.13;;;4.50;99.90;;;;;;4952978;28;20051;-92
2022/01/05 08:34:41;;;;;;;22.90;2.22;;;4.50;99.90;;;;;;4946301;28;20039;-92
2022/01/05 08:37:06;;;;;;;31.52;2.58;;;4.50;99.90;;;;;;4967957;28;20046;-89
2022/01/05 08:39:32;;;;;;;21.38;1.92;;;4.50;99.90;;;;;;4968428;28;20484;-91
2022/01/05 08:41:58;;;;;;;23.08;2.53;;;4.50;99.90;;;;;;4966224;28;20046;-90
2022/01/05 08:44:23;;;;;;;25.38;2.45;;;4.60;99.90;;;;;;4952229;28;20050;-90
2022/01/05 08:46:49;;;;;;;24.42;2.00;;;4.60;99.90;;;;;;4967905;28;20054;-90
2022/01/05 08:49:15;;;;;;;13.10;1.42;;;4.60;99.90;;;;;;4946621;28;20093;-92
2022/01/05 08:51:42;;;;;;;14.75;1.88;;;4.60;99.90;;;;;;4943167;28;20065;-91
2022/01/05 08:54:07;;;;;;;5.18;0.85;;;4.80;99.90;;;;;;4952465;28;20131;-90
2022/01/05 08:56:35;;;;;;;6.65;0.63;;;4.90;99.90;;;;;;4975539;28;20042;-91
2022/01/05 08:59:01;;;;;;;8.90;1.50;;;4.50;99.90;;;;;;4952269;28;20060;-93
2022/01/05 09:01:26;;;;;;;6.05;1.05;;;4.40;99.90;;;;;;4970205;28;20042;-95
2022/01/05 09:03:53;;;;;;;10.35;1.30;;;4.30;99.90;;;;;;4954889;28;20084;-95
2022/01/05 09:06:19;;;;;;;12.20;1.40;;;4.30;99.90;;;;;;4956965;28;20086;-96
2022/01/05 09:08:45;;;;;;;18.10;1.55;;;4.30;99.90;;;;;;4973894;28;20128;-96
2022/01/05 09:11:11;;;;;;;14.80;1.95;;;4.40;99.90;;;;;;4956369;28;20053;-95
2022/01/05 09:13:37;;;;;;;11.07;1.73;;;4.70;99.90;;;;;;4972071;28;20043;-92
2022/01/05 09:16:04;;;;;;;19.50;1.95;;;4.80;99.90;;;;;;4959058;28;20046;-96
2022/01/05 09:18:29;;;;;;;19.50;1.85;;;4.40;99.90;;;;;;4980751;28;20050;-92
2022/01/05 09:20:55;;;;;;;21.08;1.90;;;4.80;99.90;;;;;;4960533;28;20066;-91
2022/01/05 09:23:21;;;;;;;25.08;2.25;;;5.10;99.90;;;;;;4969969;28;20050;-94
2022/01/05 09:25:51;;;;;;;20.80;2.58;;;5.00;99.90;;;;;;4954543;28;20053;-95
2022/01/05 09:28:16;;;;;;;22.05;2.17;;;5.00;99.90;;;;;;4957008;28;20082;-95
2022/01/05 09:30:45;;;;;;;21.75;2.50;;;5.10;99.90;;;;;;4967960;28;20388;-96
2022/01/05 09:33:13;;;;;;;17.85;2.35;;;5.30;99.90;;;;;;4955357;28;20475;-94
2022/01/05 09:35:39;;;;;;;23.50;2.03;;;5.20;99.90;;;;;;4955619;28;20487;-96
2022/01/05 09:43:14;;;;;;;22.17;2.58;;;5.30;99.90;;;;;;4964348;28;20142;-91
2022/01/05 09:46:11;;;;;;;23.48;2.22;;;5.30;99.90;;;;;;4967205;28;20542;-93
2022/01/05 09:49:02;;;;;;;19.85;2.40;;;5.30;99.90;;;;;;4961258;28;20057;-95
2022/01/05 09:51:31;;;;;;;25.92;2.53;;;5.30;99.90;;;;;;4957674;28;20081;-91
2022/01/05 09:54:01;;;;;;;12.20;1.92;;;5.40;99.90;;;;;;4950150;28;20043;-96
2022/01/05 09:56:29;;;;;;;18.65;2.55;;;5.40;99.90;;;;;;4952026;28;20051;-93
2022/01/05 09:58:57;;;;;;;18.10;1.95;;;5.60;99.90;;;;;;4952816;28;20121;-94
2022/01/05 10:01:24;;;;;;;16.67;2.38;;;5.40;99.90;;;;;;4967296;28;20080;-94
2022/01/05 10:03:49;;;;;;;27.90;2.63;;;5.60;99.90;;;;;;4968734;28;20134;-90
2022/01/05 10:06:15;;;;;;;16.50;1.98;;;5.30;99.90;;;;;;4966422;28;20054;-93
2022/01/05 10:08:41;;;;;;;20.85;2.30;;;5.40;99.90;;;;;;4969395;28;20050;-95
2022/01/05 10:11:09;;;;;;;18.33;2.25;;;5.60;99.90;;;;;;4948650;28;20090;-95
2022/01/05 10:13:35;;;;;;;25.27;3.53;;;5.40;99.90;;;;;;4951241;28;20038;-95
2022/01/05 10:16:01;;;;;;;22.63;2.65;;;5.40;99.90;;;;;;4969717;28;20100;-94
2022/01/05 10:18:39;;;;;;;20.45;2.70;;;5.60;99.90;;;;;;4957107;28;20058;-94
2022/01/05 10:21:06;;;;;;;21.20;2.17;;;5.40;99.90;;;;;;4962035;28;20119;-93
2022/01/05 10:23:36;;;;;;;21.13;1.92;;;5.40;99.90;;;;;;4952958;28;20402;-95
2022/01/05 10:26:30;;;;;;;20.05;2.08;;;5.50;99.90;;;;;;4952608;28;20101;-93
2022/01/05 10:29:00;;;;;;;24.48;2.50;;;5.40;99.90;;;;;;4963351;28;20039;-95
2022/01/05 10:31:29;;;;;;;24.77;2.60;;;5.40;99.90;;;;;;4970654;28;20129;-92
2022/01/05 10:33:56;;;;;;;17.55;2.00;;;5.40;99.90;;;;;;4963623;28;20049;-93
2022/01/05 10:36:22;;;;;;;26.02;2.78;;;5.50;99.90;;;;;;4955263;28;20046;-91
2022/01/05 10:38:57;;;;;;;22.60;2.22;;;5.50;99.90;;;;;;4962673;28;20051;-93
2022/01/05 10:41:30;;;;;;;18.42;2.33;;;5.80;99.90;;;;;;4942538;28;20050;-94
2022/01/05 10:44:19;;;;;;;16.20;2.45;;;5.60;99.90;;;;;;4945283;28;20361;-91
2022/01/05 10:46:49;;;;;;;26.08;2.78;;;5.70;99.90;;;;;;4944887;28;20544;-93
2022/01/05 10:49:38;;;;;;;22.60;1.90;;;5.80;99.90;;;;;;4943891;28;20487;-92
2022/01/05 10:52:33;;;;;;;19.85;2.47;;;5.70;99.90;;;;;;4949358;28;20130;-91
2022/01/05 10:55:10;;;;;;;15.77;2.03;;;5.60;99.90;;;;;;4958002;28;20066;-92
2022/01/05 10:57:36;;;;;;;18.50;2.20;;;5.50;99.90;;;;;;4945202;28;20058;-91
2022/01/05 11:00:05;;;;;;;20.10;2.45;;;5.60;99.90;;;;;;4977178;28;20392;-93
2022/01/05 11:02:33;;;;;;;21.88;2.33;;;5.40;99.90;;;;;;4961124;28;20050;-91
2022/01/05 11:05:08;;;;;;;15.57;1.88;;;6.20;99.90;;;;;;4934643;28;20053;-92
2022/01/05 11:07:37;;;;;;;22.90;2.17;;;6.30;99.90;;;;;;4949248;28;20051;-93
2022/01/05 11:10:10;;;;;;;21.70;2.47;;;7.00;99.90;;;;;;4935179;28;20091;-93
2022/01/05 11:12:36;;;;;;;20.00;2.30;;;6.90;99.90;;;;;;4937599;28;20146;-93
2022/01/05 11:15:29;;;;;;;23.17;2.50;;;7.10;99.90;;;;;;4948479;28;20396;-91
2022/01/05 11:18:17;;;;;;;21.17;2.65;;;7.00;99.90;;;;;;4947938;28;20039;-92
2022/01/05 11:21:04;;;;;;;34.80;3.30;;;7.00;99.90;;;;;;4936163;28;20053;-90
2022/01/05 11:23:31;;;;;;;26.10;2.58;;;7.40;99.90;;;;;;4951381;28;20043;-93
2022/01/05 11:25:59;;;;;;;16.85;2.53;;;7.90;99.90;;;;;;4932789;28;20074;-92
2022/01/05 11:28:26;;;;;;;27.50;2.95;;;8.40;99.90;;;;;;4953352;28;20047;-91
2022/01/05 11:30:53;;;;;;;15.82;2.25;;;8.70;99.90;;;;;;4943815;28;20051;-91
2022/01/05 11:33:20;;;;;;;25.52;3.35;;;8.40;99.90;;;;;;4938657;28;20066;-91
2022/01/05 11:35:48;;;;;;;20.55;3.42;;;8.70;99.90;;;;;;4933652;28;20053;-93
2022/01/05 11:38:23;;;;;;;17.27;2.33;;;8.50;99.90;;;;;;4933494;28;20132;-90
2022/01/05 11:40:55;;;;;;;20.35;3.10;;;8.40;99.90;;;;;;4946562;28;20050;-91
2022/01/05 11:43:32;;;;;;;;;;;8.50;99.90;;;;;;4966329;28;20058;-93
2022/01/05 11:46:11;;;;;;;20.30;2.28;;;8.60;99.90;;;;;;4963684;28;19918;-91
2022/01/05 11:48:40;;;;;;;12.25;1.80;;;8.20;99.90;;;;;;4963376;28;20078;-90
2022/01/05 11:51:06;;;;;;;19.80;2.78;;;8.10;99.90;;;;;;4979111;28;20050;-91
2022/01/05 11:53:39;;;;;;;13.27;1.80;;;8.20;99.90;;;;;;4979364;28;20038;-94
2022/01/05 11:56:07;;;;;;;12.73;1.80;;;8.30;99.90;;;;;;4979975;28;20094;-92
2022/01/05 11:58:36;;;;;;;18.58;2.20;;;8.40;99.90;;;;;;4976681;28;20108;-90
2022/01/05 12:01:17;;;;;;;13.88;1.85;;;8.00;99.90;;;;;;4963369;28;20046;-92
2022/01/05 12:04:01;;;;;;;19.67;2.15;;;7.70;99.90;;;;;;4978630;28;20053;-91
2022/01/05 12:06:32;;;;;;;15.10;1.77;;;7.40;99.90;;;;;;4979450;28;20070;-93
2022/01/05 12:09:03;;;;;;;13.45;2.15;;;7.40;99.90;;;;;;4978829;28;20050;-91
2022/01/05 12:11:33;;;;;;;;;;;7.30;99.90;;;;;;4979389;28;20100;-92
2022/01/05 12:14:01;;;;;;;16.05;1.85;;;7.20;99.90;;;;;;4970307;28;19921;-92
2022/01/05 12:16:27;;;;;;;10.18;1.80;;;7.20;99.90;;;;;;4968186;28;20507;-94
2022/01/05 12:19:07;;;;;;;19.33;2.00;;;7.40;99.90;;;;;;4968277;28;20043;-93
2022/01/05 12:21:46;;;;;;;15.30;2.43;;;7.50;99.90;;;;;;4966500;28;20484;-93
2022/01/05 12:24:13;;;;;;;16.88;2.45;;;7.50;99.90;;;;;;4968787;28;20089;-95
2022/01/05 12:26:40;;;;;;;21.23;2.85;;;7.50;99.90;;;;;;4970273;28;20042;-93
2022/01/05 12:29:06;;;;;;;16.08;2.15;;;7.70;99.90;;;;;;4968249;28;20069;-95
2022/01/05 12:31:51;;;;;;;15.13;1.92;;;7.90;99.90;;;;;;4967703;28;20043;-93
2022/01/05 12:34:52;;;;;;;18.00;2.70;;;8.20;99.90;;;;;;4950700;28;20046;-92
2022/01/05 12:37:56;;;;;;;19.70;2.78;;;8.30;99.90;;;;;;4982175;28;20077;-92
2022/01/05 12:40:42;;;;;;;21.55;2.63;;;8.30;99.90;;;;;;4945715;28;20082;-91
2022/01/05 12:43:11;;;;;;;9.25;1.98;;;8.20;99.90;;;;;;4970107;28;20109;-92
2022/01/05 12:45:57;;;;;;;10.57;2.08;;;8.10;99.90;;;;;;4951792;28;20050;-92
2022/01/05 12:48:41;;;;;;;10.07;1.55;;;8.10;99.90;;;;;;4970762;28;20192;-91
2022/01/05 12:51:33;;;;;;;8.63;1.42;;;8.10;99.90;;;;;;4984798;28;20050;-89
2022/01/05 12:54:10;;;;;;;13.73;2.15;;;8.00;99.90;;;;;;4965858;28;20487;-94
2022/01/05 12:56:43;;;;;;;12.45;1.75;;;7.90;99.90;;;;;;4949029;28;20053;-93
2022/01/05 12:59:13;;;;;;;12.40;2.03;;;8.00;99.90;;;;;;4959177;28;20043;-94